Latest Weather Observations for Palmerville

IDQ60801

Issued at 6:32 pm EST Tuesday 3 May 2016 (issued every 30 minutes, with the page automatically refreshed every 10 minutes)

About weather observations | Map of weather stations | Latest weather observations for QLD | Other Formats
Station Details ID: 028004 Name: PALMERVILLE Lat: -16.00 Lon: 144.08 Height: 203.8 m
Data from the previous 72 hours. | See also: Recent months at Palmerville
Date/Time
EST
Temp
°C
App
Temp
°C
Dew
Point
Rel
Hum
%
Delta-T
°C
Wind Press
QNH
hPa
Press
MSL
hPa
Rain
since 9 am
mm
Dir
 
Spd
km/h
Gust
km/h
Spd
kts
Gust
kts
03/06:30pm 27.0 30.5 19.6 64 4.8 CALM 0 0 0 0 1011.6 1010.5 0.0
03/06:00pm 29.3 33.0 19.9 57 6.2 CALM 0 0 0 0 1011.2 1010.1 0.0
03/05:30pm 31.3 33.5 18.3 46 8.4 NW 4 7 2 4 1010.9 1009.8 0.0
03/05:00pm 32.4 33.3 16.7 39 10.0 W 7 11 4 6 1010.6 1009.5 0.0
03/04:30pm 32.7 35.0 18.5 43 9.3 ENE 4 7 2 4 1010.5 1009.4 0.0
03/04:00pm 32.4 33.1 17.1 40 9.8 SSW 9 13 5 7 1010.4 1009.3 0.0
03/03:30pm 33.0 34.3 17.6 40 10.0 S 7 11 4 6 1010.7 1009.6 0.0
03/03:00pm 33.2 34.7 18.9 42 9.4 SSW 9 15 5 8 1010.8 1009.7 0.0
03/02:30pm 32.7 33.5 18.1 42 9.5 WSW 11 19 6 10 1011.2 1010.1 0.0
03/02:00pm 31.8 32.7 18.4 45 8.7 WSW 11 17 6 9 1011.4 1010.3 0.0
03/01:30pm 31.5 33.0 18.8 46 8.3 WSW 9 13 5 7 1011.7 1010.6 0.0
03/01:00pm 32.2 34.7 19.8 48 8.2 WSW 6 13 3 7 1012.2 1011.2 0.0
03/12:30pm 31.5 33.9 20.1 50 7.6 W 7 13 4 7 1012.8 1011.8 0.0
03/12:00pm 31.1 32.8 19.4 49 7.7 SW 9 17 5 9 1013.4 1012.3 0.0
03/11:30am 31.3 33.5 19.3 49 7.9 S 6 9 3 5 1013.9 1012.8 0.0
03/11:00am 30.8 33.1 19.5 51 7.5 NE 6 11 3 6 1014.3 1013.2 0.0
03/10:30am 29.3 31.5 19.3 55 6.5 NE 6 13 3 7 1014.6 1013.5 0.0
03/10:00am 28.5 30.7 19.7 59 5.8 ENE 7 11 4 6 1014.9 1013.8 0.0
03/09:30am 27.7 30.4 20.3 64 4.9 NE 6 9 3 5 1015.1 1014.0 0.0
03/09:00am 26.5 28.9 20.1 68 4.2 NNE 7 11 4 6 1014.9 1013.8 0.0
03/08:30am 25.6 28.2 20.4 73 3.4 E 7 11 4 6 1014.7 1013.6 0.0
03/08:00am 24.5 27.6 21.0 81 2.3 ENE 6 7 3 4 1014.5 1013.4 0.0
03/07:30am 22.7 26.8 21.5 93 0.8 NE 2 6 1 3 1014.2 1013.1 0.0
03/07:00am 21.6 24.9 21.4 99 0.1 NE 6 9 3 5 1014.2 1013.1 0.0
03/06:30am 21.4 25.0 21.2 99 0.1 E 4 9 2 5 1013.9 1012.8 0.0
03/06:00am 21.4 25.0 21.2 99 0.1 ENE 4 7 2 4 1013.5 1012.4 0.0
03/05:30am 21.3 24.9 21.3 100 0.0 NE 4 7 2 4 1013.2 1012.1 0.0
03/05:00am 20.9 24.6 19.9 94 0.6 CALM 0 0 0 0 1013.2 1012.1 0.0
03/04:30am 21.4 25.2 20.2 93 0.8 CALM 0 0 0 0 1013.1 1012.0 0.0
03/04:00am 21.7 24.3 20.0 90 1.1 NNE 6 7 3 4 1012.9 1011.9 0.0
03/03:30am 22.5 26.2 19.9 85 1.7 CALM 0 0 0 0 1012.7 1011.7 0.0
03/03:00am 22.7 26.4 19.9 84 1.8 CALM 0 6 0 3 1012.6 1011.6 0.0
03/02:30am 22.9 25.5 20.1 84 1.8 NE 6 9 3 5 1012.7 1011.7 0.0
03/02:00am 22.7 25.8 20.2 86 1.6 E 4 9 2 5 1013.2 1012.1 0.0
03/01:30am 22.3 25.9 19.8 86 1.6 CALM 0 0 0 0 1013.7 1012.6 0.0
03/01:00am 22.8 26.4 19.8 83 1.9 CALM 0 0 0 0 1014.1 1013.0 0.0
03/12:30am 23.4 26.9 19.5 79 2.5 CALM 0 0 0 0 1014.5 1013.4 0.0
03/12:00am 24.1 27.5 19.4 75 3.0 CALM 0 6 0 3 1014.6 1013.5 0.0
 
Date/Time
EST
Temp
°C
App
Temp
°C
Dew
Point
Rel
Hum
%
Delta-T
°C
Wind Press
QNH
hPa
Press
MSL
hPa
Rain
since 9 am
mm
Dir
 
Spd
km/h
Gust
km/h
Spd
kts
Gust
kts
02/11:30pm 25.1 27.3 19.7 72 3.5 NE 7 9 4 5 1014.7 1013.6 0.0
02/11:00pm 25.8 27.5 20.1 71 3.7 NNE 11 19 6 10 1014.7 1013.6 0.0
02/10:30pm 26.0 28.1 20.1 70 3.9 NE 9 17 5 9 1014.9 1013.8 0.0
02/10:00pm 26.4 28.2 20.3 69 4.0 NE 11 17 6 9 1014.9 1013.8 0.0
02/09:30pm 26.9 28.7 20.3 67 4.4 NE 11 17 6 9 1014.6 1013.5 0.0
02/09:00pm 27.3 29.5 20.4 66 4.6 NE 9 17 5 9 1014.4 1013.3 0.0
02/08:30pm 27.8 29.3 20.6 65 4.8 NNE 13 20 7 11 1014.3 1013.2 0.0
02/08:00pm 28.3 30.1 20.3 62 5.3 NNE 11 19 6 10 1013.9 1012.8 0.0
02/07:30pm 28.8 30.1 19.4 56 6.2 NNE 11 17 6 9 1013.5 1012.4 0.0
02/07:00pm 29.3 30.7 18.7 52 6.9 NNE 9 15 5 8 1012.9 1011.9 0.0
02/06:30pm 30.5 30.9 18.9 50 7.6 NNE 15 20 8 11 1012.4 1011.4 0.0
02/06:00pm 30.6 32.5 19.0 50 7.6 NNE 7 9 4 5 1012.0 1010.9 0.0
02/05:30pm 31.6 33.0 18.6 46 8.5 NNE 9 15 5 8 1011.7 1010.6 0.0
02/05:00pm 32.3 33.1 18.1 42 9.2 NNE 11 15 6 8 1011.1 1010.0 0.0
02/04:30pm 32.5 33.5 18.7 44 9.0 NNE 11 19 6 10 1010.9 1009.8 0.0
02/04:00pm 32.8 34.3 18.9 43 9.2 NE 9 19 5 10 1010.6 1009.5 0.0
02/03:30pm 32.9 33.9 19.4 45 8.9 NNE 13 19 7 10 1010.5 1009.4 0.0
02/03:00pm 33.3 34.5 19.0 42 9.4 E 11 15 6 8 1010.9 1009.8 0.0
02/02:30pm 33.3 35.0 19.4 44 9.2 N 9 15 5 8 1011.1 1010.0 0.0
02/02:00pm 33.7 35.1 18.6 40 9.9 NE 9 17 5 9 1011.3 1010.2 0.0
02/01:30pm 33.6 34.7 18.9 41 9.7 ENE 11 19 6 10 1011.7 1010.6 0.0
02/01:00pm 33.1 34.7 19.2 43 9.2 E 9 17 5 9 1012.0 1010.9 0.0
02/12:30pm 33.1 33.9 18.1 41 9.8 N 11 20 6 11 1012.4 1011.4 0.0
02/12:00pm 32.9 34.4 19.7 45 8.8 NNE 11 19 6 10 1012.9 1011.9 0.0
02/11:30am 32.2 34.2 19.1 45 8.6 E 7 15 4 8 1013.5 1012.4 0.0
02/11:00am 31.8 33.5 20.1 50 7.8 ENE 11 17 6 9 1013.9 1012.8 0.0
02/10:30am 30.5 33.4 21.0 57 6.4 NE 7 15 4 8 1014.3 1013.2 0.0
02/10:00am 29.4 31.8 20.8 60 5.8 E 9 15 5 8 1014.6 1013.5 0.0
02/09:30am 28.7 30.8 21.0 63 5.2 E 11 20 6 11 1014.8 1013.7 0.0
02/09:00am 27.7 32.2 21.5 69 4.2 CALM 0 7 0 4 1015.0 1013.9 0.0
02/08:30am 25.8 30.4 21.7 78 2.7 CALM 0 0 0 0 1014.9 1013.8 0.0
02/08:00am 24.0 28.6 21.7 87 1.5 CALM 0 0 0 0 1014.7 1013.6 0.0
02/07:30am 22.3 27.2 22.3 100 0.0 CALM 0 0 0 0 1014.6 1013.5 0.0
02/07:00am 20.9 25.1 20.9 100 0.0 CALM 0 0 0 0 1014.2 1013.1 0.0
02/06:30am 20.8 24.9 20.8 100 0.0 CALM 0 0 0 0 1013.8 1012.7 0.0
02/06:00am 21.0 25.2 21.0 100 0.0 CALM 0 4 0 2 1013.5 1012.4 0.0
02/05:30am 21.1 25.4 21.1 100 0.0 CALM 0 0 0 0 1013.3 1012.2 0.0
02/05:00am 21.1 25.4 21.1 100 0.0 CALM 0 0 0 0 1013.1 1012.0 0.0
02/04:30am 21.4 25.8 21.4 100 0.0 CALM 0 0 0 0 1012.7 1011.7 0.0
02/04:00am 21.7 26.1 21.4 98 0.2 CALM 0 0 0 0 1012.8 1011.8 0.0
02/03:30am 22.1 26.5 21.4 96 0.5 CALM 0 0 0 0 1012.8 1011.8 0.0
02/03:00am 22.4 26.9 21.6 95 0.5 CALM 0 0 0 0 1013.1 1012.0 0.0
02/02:30am 22.5 26.7 21.0 91 1.0 CALM 0 0 0 0 1013.3 1012.2 0.0
02/02:00am 22.8 26.9 20.7 88 1.4 CALM 0 0 0 0 1013.5 1012.4 0.0
02/01:30am 22.9 26.5 20.6 87 1.5 ENE 2 6 1 3 1013.6 1012.5 0.0
02/01:00am 23.5 27.0 20.4 83 2.0 ENE 2 6 1 3 1014.0 1012.9 0.0
02/12:30am 24.0 27.5 20.3 80 2.4 ENE 2 7 1 4 1014.3 1013.2 0.0
02/12:00am 24.2 27.0 20.5 80 2.4 E 6 9 3 5 1014.6 1013.5 0.0
 
Date/Time
EST
Temp
°C
App
Temp
°C
Dew
Point
Rel
Hum
%
Delta-T
°C
Wind Press
QNH
hPa
Press
MSL
hPa
Rain
since 9 am
mm
Dir
 
Spd
km/h
Gust
km/h
Spd
kts
Gust
kts
01/11:30pm 24.3 27.8 20.4 79 2.6 E 2 7 1 4 1014.6 1013.5 0.0
01/11:00pm 24.6 28.7 20.7 79 2.6 CALM 0 0 0 0 1014.9 1013.8 0.0
01/10:30pm 25.3 28.0 20.3 74 3.3 SSW 6 7 3 4 1015.0 1013.9 0.0
01/10:00pm 26.1 28.7 20.4 71 3.8 ENE 7 13 4 7 1015.0 1013.9 0.0
01/09:30pm 26.6 28.4 20.4 69 4.1 NE 11 17 6 9 1015.0 1013.9 0.0
01/09:00pm 26.7 28.6 20.5 69 4.1 ENE 11 17 6 9 1014.7 1013.6 0.0
01/08:30pm 27.0 29.3 20.6 68 4.2 ENE 9 13 5 7 1014.5 1013.4 0.0
01/08:00pm 27.2 30.0 20.8 68 4.3 ENE 7 11 4 6 1014.2 1013.1 0.0
01/07:30pm 27.6 30.3 20.7 66 4.6 ENE 7 13 4 7 1013.8 1012.7 0.0
01/07:00pm 28.0 30.3 20.6 64 4.9 NE 9 15 5 8 1013.4 1012.3 0.0
01/06:30pm 28.5 30.7 20.5 62 5.3 NE 9 17 5 9 1012.9 1011.9 0.0
01/06:00pm 28.9 30.6 20.1 59 5.8 NE 11 20 6 11 1012.7 1011.7 0.0
01/05:30pm 30.2 32.4 20.4 55 6.5 ENE 9 17 5 9 1012.5 1011.5 0.0
01/05:00pm 30.9 32.8 20.5 54 7.0 ENE 11 17 6 9 1012.2 1011.2 0.0
01/04:30pm 31.5 33.7 21.1 54 7.0 ENE 11 24 6 13 1012.1 1011.1 0.0
01/04:00pm 31.6 31.8 20.2 50 7.6 ENE 19 30 10 16 1011.9 1010.8 0.0
01/03:30pm 32.8 34.7 21.3 50 7.8 ENE 13 20 7 11 1011.7 1010.6 0.0
01/03:00pm 32.6 34.2 21.5 52 7.6 ENE 15 26 8 14 1011.8 1010.7 0.0
01/02:30pm 33.0 34.3 20.9 49 8.2 E 15 24 8 13 1012.1 1011.1 0.0
01/02:00pm 32.7 34.7 22.2 54 7.2 ENE 15 24 8 13 1012.3 1011.3 0.0
01/01:30pm 31.4 32.8 21.0 54 7.0 E 15 26 8 14 1012.7 1011.7 0.0
01/01:00pm 32.1 33.6 21.3 53 7.3 ENE 15 24 8 13 1013.2 1012.1 0.0
01/12:30pm 32.5 35.4 23.2 58 6.5 E 13 20 7 11 1013.8 1012.7 0.0
01/12:00pm 30.8 31.4 21.0 56 6.6 NE 19 28 10 15 1014.3 1013.2 0.0
01/11:30am 31.4 34.1 21.3 55 6.8 ENE 9 19 5 10 1014.8 1013.7 0.0
01/11:00am 30.1 31.8 20.9 57 6.2 ENE 13 20 7 11 1015.4 1014.3 0.0
01/10:30am 30.2 31.8 20.7 56 6.4 E 13 20 7 11 1015.6 1014.5 0.0
01/10:00am 29.4 31.9 21.1 61 5.6 ENE 9 15 5 8 1015.9 1014.8 0.0
01/09:30am 28.4 31.3 21.7 67 4.5 ESE 9 17 5 9 1016.0 1014.8 0.0
01/09:00am 27.2 30.1 21.0 69 4.1 ESE 7 15 4 8 1015.9 1014.7 0.0
01/08:30am 26.0 29.0 21.2 75 3.2 E 7 11 4 6 1015.7 1014.5 0.0
01/08:00am 24.6 27.7 21.1 81 2.3 ENE 6 9 3 5 1015.5 1014.3 0.0
01/07:30am 24.0 28.7 21.9 88 1.4 CALM 0 0 0 0 1015.3 1014.1 0.0
01/07:00am 22.6 27.1 21.6 94 0.7 CALM 0 0 0 0 1014.9 1013.7 0.0
01/06:30am 22.5 25.5 21.3 93 0.8 E 7 11 4 6 1014.6 1013.4 0.0
01/06:00am 22.5 25.5 21.3 93 0.8 E 7 9 4 5 1014.2 1012.9 0.0
01/05:30am 22.7 25.8 21.0 90 1.1 ENE 6 9 3 5 1013.9 1012.6 0.0
01/05:00am 22.9 27.0 20.8 88 1.4 CALM 0 7 0 4 1013.8 1012.5 0.0
01/04:30am 23.1 26.8 20.8 87 1.5 ENE 2 7 1 4 1013.6 1012.3 0.0
01/04:00am 23.3 25.7 20.8 86 1.6 ESE 9 13 5 7 1013.5 1012.2 0.0
01/03:30am 23.7 25.6 20.6 83 2.0 E 11 15 6 8 1013.4 1012.1 0.0
01/03:00am 23.8 25.8 20.7 83 2.0 ESE 11 15 6 8 1013.4 1012.1 0.0
01/02:30am 23.9 25.9 20.8 83 2.0 E 11 15 6 8 1013.6 1012.3 0.0
01/02:00am 24.0 26.0 20.7 82 2.2 ESE 11 15 6 8 1013.8 1012.5 0.0
01/01:30am 24.5 26.8 20.6 79 2.6 E 9 13 5 7 1014.1 1012.8 0.0
01/01:00am 24.7 27.0 20.6 78 2.7 E 9 15 5 8 1014.3 1013.0 0.0
01/12:30am 25.2 27.9 20.7 76 3.0 E 7 11 4 6 1014.3 1013.0 0.0
01/12:00am 25.2 27.5 20.7 76 3.0 E 9 15 5 8 1014.4 1013.1 0.0
 
Date/Time
EST
Temp
°C
App
Temp
°C
Dew
Point
Rel
Hum
%
Delta-T
°C
Wind Press
QNH
hPa
Press
MSL
hPa
Rain
since 9 am
mm
Dir
 
Spd
km/h
Gust
km/h
Spd
kts
Gust
kts
30/11:30pm 25.5 27.5 20.7 75 3.2 E 11 19 6 10 1014.5 1013.2 0.0
30/11:00pm 25.5 27.7 20.5 74 3.3 E 9 13 5 7 1014.7 1013.5 0.0
30/10:30pm 26.0 27.9 20.6 72 3.6 ENE 11 15 6 8 1014.7 1013.5 0.0
30/10:00pm 26.5 28.0 20.6 70 3.9 ENE 13 19 7 10 1014.7 1013.5 0.0
30/09:30pm 26.6 28.7 20.9 71 3.8 ENE 11 17 6 9 1014.5 1013.2 0.0
30/09:00pm 26.3 30.2 21.1 73 3.5 SW 2 7 1 4 1014.3 1013.0 0.0
30/08:30pm 26.6 29.9 20.7 70 3.9 ENE 4 7 2 4 1014.2 1012.9 0.0
30/08:00pm 27.0 29.2 21.1 70 3.9 NE 11 15 6 8 1013.8 1012.5 0.0
30/07:30pm 27.4 30.3 20.7 67 4.5 E 6 7 3 4 1013.6 1012.3 0.0
30/07:00pm 27.9 30.8 20.7 65 4.8 ENE 6 7 3 4 1013.2 1011.9 0.0

Other Formats:

Comma delimited format used in spreadsheet applications
http://www.bom.gov.au/fwo/IDQ60801/IDQ60801.94276.axf

JavaScript Object Notation format (JSON) in row-major order
http://www.bom.gov.au/fwo/IDQ60801/IDQ60801.94276.json